Time;durP1;ratioP1;P1;durP2;ratioP2;P2;SDS_P1;SDS_P2;PMS_P1;PMS_P2;Temp;Humidity;BMP_temperature;BMP_pressure;BME280_temperature;BME280_humidity;BME280_pressure;Samples;Min_cycle;Max_cycle;Signal;HPM_P1;HPM_P2
2022/09/15 00:00:55;;;;;;;;;;;;;;;13.27;100.00;99246.13;1688263;84;20995;-76
2022/09/15 00:03:23;;;;;;;15.63;14.23;;;;;;;13.17;100.00;99245.38;1706693;83;20157;-75
2022/09/15 00:05:53;;;;;;;15.72;14.33;;;;;;;13.06;100.00;99241.63;1717268;82;20983;-76
2022/09/15 00:08:20;;;;;;;17.02;15.63;;;;;;;13.03;100.00;99246.94;1705445;82;21057;-75
2022/09/15 00:10:51;;;;;;;17.12;15.72;;;;;;;13.01;100.00;99244.98;1698183;83;21184;-76
2022/09/15 00:13:19;;;;;;;16.82;15.25;;;;;;;13.01;100.00;99247.66;1704732;82;21030;-75
2022/09/15 00:15:46;;;;;;;16.77;15.30;;;;;;;13.00;100.00;99248.72;1695366;82;21099;-76
2022/09/15 00:18:12;;;;;;;18.05;16.40;;;;;;;13.00;100.00;99239.36;1702019;83;21026;-77
2022/09/15 00:20:41;;;;;;;17.17;15.68;;;;;;;12.97;100.00;99235.80;1704555;83;20991;-77
2022/09/15 00:23:10;;;;;;;18.45;16.75;;;;;;;12.93;100.00;99229.28;1710178;83;20963;-76
2022/09/15 00:25:44;;;;;;;18.05;16.35;;;;;;;12.94;100.00;99235.44;1693429;83;21105;-76
2022/09/15 00:28:12;;;;;;;18.70;16.73;;;;;;;12.92;100.00;99235.70;1673744;84;21042;-75
2022/09/15 00:30:44;;;;;;;16.45;14.95;;;;;;;12.92;100.00;99229.02;1702437;82;20990;-77
2022/09/15 00:33:12;;;;;;;17.48;15.88;;;;;;;12.94;100.00;99224.74;1705042;82;21557;-77
2022/09/15 00:35:40;;;;;;;18.45;16.80;;;;;;;12.93;100.00;99222.59;1691261;82;21527;-76
2022/09/15 00:38:09;;;;;;;17.95;16.05;;;;;;;12.91;100.00;99226.56;1715495;82;21002;-77
2022/09/15 00:40:52;;;;;;;16.42;14.93;;;;;;;12.88;100.00;99225.67;1719344;83;21048;-76
2022/09/15 00:43:23;;;;;;;20.43;16.30;;;;;;;12.88;100.00;99231.83;1640023;86;21056;-77
2022/09/15 00:45:50;;;;;;;17.25;15.75;;;;;;;12.72;100.00;99211.13;1712081;83;20987;-76
2022/09/15 00:48:21;;;;;;;18.65;17.05;;;;;;;12.85;100.00;99229.63;1711338;83;21007;-76
2022/09/15 00:50:52;;;;;;;16.65;15.30;;;;;;;12.85;100.00;99234.98;1719982;83;21501;-76
2022/09/15 00:53:20;;;;;;;18.10;16.37;;;;;;;12.84;100.00;99232.81;1717836;82;21243;-77
2022/09/15 00:55:49;;;;;;;17.55;15.48;;;;;;;12.82;100.00;99230.08;1721227;83;21043;-77
2022/09/15 00:58:23;;;;;;;16.57;14.98;;;;;;;12.80;100.00;99231.64;1650724;86;21007;-77
2022/09/15 01:00:59;;;;;;;17.52;15.80;;;;;;;12.78;100.00;99224.91;1708997;82;21362;-76
2022/09/15 01:03:30;;;;;;;17.57;15.98;;;;;;;12.79;100.00;99223.34;1645244;86;21080;-76
2022/09/15 01:06:05;;;;;;;16.52;14.85;;;;;;;12.80;100.00;99225.48;1707875;83;21047;-77
2022/09/15 01:08:42;;;;;;;15.98;14.47;;;;;;;12.83;100.00;99226.38;1709020;83;21563;-76
2022/09/15 01:11:08;;;;;;;16.48;14.78;;;;;;;12.80;100.00;99227.63;1717651;83;20991;-77
2022/09/15 01:13:35;;;;;;;16.73;15.20;;;;;;;12.78;100.00;99226.25;1719702;82;20956;-77
2022/09/15 01:16:21;;;;;;;17.12;15.35;;;;;;;12.74;100.00;99227.22;1718898;82;20988;-76
2022/09/15 01:19:06;;;;;;;16.23;14.68;;;;;;;12.70;100.00;99221.24;1718603;83;21050;-76
2022/09/15 01:21:37;;;;;;;16.37;14.85;;;;;;;12.65;100.00;99220.58;1713359;83;21073;-78
2022/09/15 01:24:35;;;;;;;14.73;13.43;;;;;;;12.63;100.00;99222.13;1717090;82;21551;-76
2022/09/15 01:27:33;;;;;;;15.20;13.90;;;;;;;12.59;100.00;99214.28;1721209;83;20987;-75
2022/09/15 01:30:17;;;;;;;17.52;16.02;;;;;;;12.57;100.00;99202.20;1718345;82;21472;-75
2022/09/15 01:33:09;;;;;;;15.43;14.13;;;;;;;12.55;100.00;99200.28;1716738;83;20972;-75
2022/09/15 01:36:11;;;;;;;15.85;14.45;;;;;;;12.54;100.00;99189.28;1713762;83;21556;-75
2022/09/15 01:38:55;;;;;;;16.20;14.63;;;;;;;12.53;100.00;99184.47;1645321;86;21100;-75
2022/09/15 01:41:33;;;;;;;19.70;16.07;;;;;;;12.56;100.00;99185.33;1717510;82;21621;-76
2022/09/15 01:44:26;;;;;;;15.43;13.98;;;;;;;12.58;100.00;99192.63;1704186;83;21080;-77
2022/09/15 01:46:57;;;;;;;15.50;14.10;;;;;;;12.60;100.00;99189.70;1717626;83;21530;-76
2022/09/15 01:49:31;;;;;;;14.73;13.38;;;;;;;12.61;100.00;99187.33;1712323;82;20975;-77
2022/09/15 01:51:59;;;;;;;14.83;13.65;;;;;;;12.62;100.00;99186.27;1704185;83;20996;-75
2022/09/15 01:54:30;;;;;;;14.70;13.53;;;;;;;12.62;100.00;99187.11;1712568;83;21372;-76
2022/09/15 01:56:57;;;;;;;17.00;15.45;;;;;;;12.62;100.00;99172.41;1644150;86;21565;-76
2022/09/15 01:59:23;;;;;;;14.45;13.13;;;;;;;12.64;100.00;99173.52;1704729;82;20995;-76
2022/09/15 02:01:58;;;;;;;13.98;12.78;;;;;;;12.69;100.00;99168.27;1721656;83;21006;-76
2022/09/15 02:04:40;;;;;;;15.85;14.15;;;;;;;12.74;100.00;99174.28;1710248;83;21081;-76
2022/09/15 02:07:47;;;;;;;15.63;14.13;;;;;;;12.77;100.00;99175.13;1701500;83;20972;-76
2022/09/15 02:10:40;;;;;;;14.47;13.00;;;;;;;12.77;100.00;99169.28;1688078;82;21035;-75
2022/09/15 02:13:52;;;;;;;15.20;14.00;;;;;;;12.72;100.00;99168.35;1708520;83;21498;-75
2022/09/15 02:16:26;;;;;;;14.40;13.30;;;;;;;12.69;100.00;99166.94;1709472;82;21049;-76
2022/09/15 02:19:24;;;;;;;14.98;13.78;;;;;;;12.68;100.00;99180.02;1677357;85;21014;-75
2022/09/15 02:22:03;;;;;;;14.75;13.25;;;;;;;12.70;100.00;99177.13;1689957;83;21028;-76
2022/09/15 02:24:41;;;;;;;13.78;12.63;;;;;;;12.70;100.00;99174.45;1700400;83;21037;-75
2022/09/15 02:27:11;;;;;;;14.13;12.93;;;;;;;12.72;100.00;99177.70;1694475;83;21026;-76
2022/09/15 02:29:39;;;;;;;13.78;12.37;;;;;;;12.73;100.00;99171.30;1682491;83;21061;-76
2022/09/15 02:32:08;;;;;;;13.00;11.75;;;;;;;12.73;100.00;99162.75;1692760;82;21504;-75
2022/09/15 02:34:40;;;;;;;13.55;12.37;;;;;;;12.75;100.00;99166.53;1694079;83;21127;-76
2022/09/15 02:37:09;;;;;;;15.98;14.45;;;;;;;12.75;100.00;99167.37;1660339;85;21050;-75
2022/09/15 02:39:39;;;;;;;14.98;13.68;;;;;;;12.80;100.00;99166.66;1693167;83;21550;-75
2022/09/15 02:42:06;;;;;;;13.60;12.50;;;;;;;12.82;100.00;99165.91;1699086;82;21041;-78
2022/09/15 02:44:32;;;;;;;;;;;;;;;12.84;100.00;99167.82;1699993;83;21055;-77
2022/09/15 02:47:00;;;;;;;14.10;12.70;;;;;;;12.60;100.00;99122.87;1694859;83;20113;-76
2022/09/15 02:49:27;;;;;;;13.75;12.45;;;;;;;12.85;100.00;99166.79;1698427;83;21146;-76
2022/09/15 02:51:54;;;;;;;13.18;12.05;;;;;;;12.88;100.00;99166.31;1697702;83;21025;-76
2022/09/15 02:54:21;;;;;;;13.72;12.40;;;;;;;12.91;100.00;99170.39;1715401;82;21113;-76
2022/09/15 02:56:47;;;;;;;14.70;13.25;;;;;;;12.91;100.00;99163.18;1720585;82;20984;-76
2022/09/15 02:59:13;;;;;;;13.98;12.68;;;;;;;12.92;100.00;99163.48;1711348;82;21006;-76
2022/09/15 03:01:40;;;;;;;14.47;13.28;;;;;;;12.94;100.00;99157.38;1636952;83;21131;-76
2022/09/15 03:04:06;;;;;;;;;;;;;;;12.95;100.00;99155.51;1705610;83;21506;-76
2022/09/15 03:06:36;;;;;;;14.70;13.30;;;;;;;12.95;100.00;99152.30;1691231;83;20131;-79
2022/09/15 03:09:06;;;;;;;14.50;13.18;;;;;;;12.93;100.00;99150.92;1693814;83;21061;-77
2022/09/15 03:11:35;;;;;;;14.60;13.08;;;;;;;12.95;100.00;99148.29;1693036;83;21564;-76
2022/09/15 03:14:05;;;;;;;14.40;13.13;;;;;;;12.99;100.00;99146.77;1695996;83;21010;-75
2022/09/15 03:16:33;;;;;;;12.88;11.68;;;;;;;13.04;100.00;99148.77;1665923;84;20995;-75
2022/09/15 03:18:59;;;;;;;12.75;11.70;;;;;;;13.08;100.00;99147.24;1715648;82;21011;-75
2022/09/15 03:21:28;;;;;;;;;;;;;;;13.12;100.00;99138.23;1699836;82;20963;-75
2022/09/15 03:23:57;;;;;;;12.58;11.38;;;;;;;13.15;100.00;99133.23;1693336;84;20137;-76
2022/09/15 03:26:23;;;;;;;12.78;11.78;;;;;;;13.13;100.00;99123.78;1693892;81;21125;-75
2022/09/15 03:28:49;;;;;;;14.05;12.68;;;;;;;13.13;100.00;99124.63;1694956;83;21010;-76
2022/09/15 03:31:15;;;;;;;13.48;12.35;;;;;;;13.15;100.00;99122.52;1695637;83;21033;-75
2022/09/15 03:33:41;;;;;;;13.72;12.53;;;;;;;13.15;100.00;99123.06;1691724;83;21046;-75
2022/09/15 03:36:08;;;;;;;12.68;11.65;;;;;;;13.16;100.00;99120.66;1688429;83;21077;-76
2022/09/15 03:38:35;;;;;;;14.23;13.03;;;;;;;13.17;100.00;99112.94;1687615;84;21065;-76
2022/09/15 03:41:06;;;;;;;14.53;13.00;;;;;;;13.19;100.00;99117.52;1688129;83;21042;-77
2022/09/15 03:43:34;;;;;;;14.87;13.18;;;;;;;13.23;100.00;99112.79;1696995;83;20977;-80
2022/09/15 03:46:02;;;;;;;14.28;12.85;;;;;;;13.28;100.00;99116.11;1693758;83;21845;-77
2022/09/15 03:48:31;;;;;;;14.75;13.45;;;;;;;13.32;100.00;99115.95;1688127;83;21140;-78
2022/09/15 03:50:57;;;;;;;13.30;12.05;;;;;;;13.33;100.00;99120.23;1702754;83;21568;-77
2022/09/15 03:53:24;;;;;;;14.35;13.05;;;;;;;13.35;100.00;99118.14;1656677;84;21024;-80
2022/09/15 03:55:50;;;;;;;14.28;13.00;;;;;;;13.32;100.00;99114.61;1694348;84;21093;-79
2022/09/15 03:58:18;;;;;;;14.53;13.28;;;;;;;13.32;100.00;99115.95;1692890;83;21494;-80
2022/09/15 04:00:45;;;;;;;14.55;13.05;;;;;;;13.36;100.00;99118.44;1687298;83;21094;-79
2022/09/15 04:03:12;;;;;;;15.80;14.47;;;;;;;13.38;100.00;99106.97;1677385;83;21057;-80
2022/09/15 04:05:39;;;;;;;14.78;13.58;;;;;;;13.39;100.00;99107.78;1697188;82;21626;-80
2022/09/15 04:08:05;;;;;;;15.65;14.20;;;;;;;13.44;100.00;99107.89;1713064;82;20966;-80
2022/09/15 04:10:32;;;;;;;14.45;13.00;;;;;;;13.52;100.00;99115.53;1719753;82;21044;-80
2022/09/15 04:12:58;;;;;;;15.72;14.13;;;;;;;13.54;100.00;99113.97;1716249;82;21033;-80
2022/09/15 04:15:24;;;;;;;16.37;14.35;;;;;;;13.46;100.00;99109.80;1708799;82;21580;-80
2022/09/15 04:17:50;;;;;;;15.18;13.75;;;;;;;13.43;100.00;99117.79;1690206;82;21582;-79
2022/09/15 04:20:17;;;;;;;13.53;12.28;;;;;;;13.42;100.00;99118.02;1675811;84;21075;-79
2022/09/15 04:22:44;;;;;;;14.90;13.50;;;;;;;13.41;100.00;99109.19;1700800;82;21522;-80
2022/09/15 04:25:10;;;;;;;17.50;15.78;;;;;;;13.41;100.00;99107.84;1689004;81;20979;-77
2022/09/15 04:27:38;;;;;;;15.60;14.13;;;;;;;13.40;100.00;99112.90;1680848;83;21114;-79
2022/09/15 04:30:07;;;;;;;14.28;13.08;;;;;;;13.41;100.00;99111.03;1687418;83;20994;-80
2022/09/15 04:32:34;;;;;;;15.10;13.75;;;;;;;13.43;100.00;99131.70;1689000;84;20998;-83
2022/09/15 04:35:01;;;;;;;15.10;13.80;;;;;;;13.43;100.00;99137.86;1705179;82;21022;-77
2022/09/15 04:37:28;;;;;;;14.60;13.18;;;;;;;13.46;100.00;99136.56;1700921;82;21247;-76
2022/09/15 04:39:55;;;;;;;16.07;14.58;;;;;;;13.43;100.00;99119.13;1705425;82;21548;-76
2022/09/15 04:42:22;;;;;;;13.88;12.58;;;;;;;13.43;100.00;99123.67;1703209;82;21033;-79
2022/09/15 04:44:49;;;;;;;16.12;14.55;;;;;;;13.42;100.00;99125.52;1704309;82;22147;-72
2022/09/15 04:47:15;;;;;;;16.10;14.43;;;;;;;13.41;100.00;99121.23;1701422;82;21101;-75
2022/09/15 04:49:43;;;;;;;14.60;13.43;;;;;;;13.43;100.00;99118.33;1666317;84;21106;-73
2022/09/15 04:52:09;;;;;;;;;;;;;;;13.44;100.00;99113.23;1704877;82;21115;-75
2022/09/15 04:54:35;;;;;;;15.55;14.05;;;;;;;13.44;100.00;99099.33;1678615;84;20155;-75
2022/09/15 04:57:01;;;;;;;15.03;13.62;;;;;;;13.42;100.00;99090.72;1702649;82;21065;-74
2022/09/15 04:59:28;;;;;;;;;;;;;;;13.46;100.00;99095.08;1705719;82;21043;-74
2022/09/15 05:01:54;;;;;;;15.28;13.85;;;;;;;13.52;100.00;99094.12;1701844;82;20219;-75
2022/09/15 05:04:21;;;;;;;13.53;12.33;;;;;;;13.55;100.00;99091.51;1697067;82;21030;-73
2022/09/15 05:06:48;;;;;;;14.80;13.60;;;;;;;13.62;100.00;99086.84;1699712;82;21023;-75
2022/09/15 05:09:14;;;;;;;14.75;13.55;;;;;;;13.62;100.00;99083.62;1711434;82;21034;-78
2022/09/15 05:11:40;;;;;;;14.20;11.93;;;;;;;13.64;100.00;99083.39;1704255;82;20999;-71
2022/09/15 05:14:08;;;;;;;13.53;12.43;;;;;;;13.66;100.00;99088.52;1697909;82;20966;-71
2022/09/15 05:16:34;;;;;;;13.40;12.33;;;;;;;13.68;100.00;99089.89;1703643;82;21097;-71
2022/09/15 05:19:04;;;;;;;;;;;;;;;13.70;100.00;99089.66;1705625;82;21057;-72
2022/09/15 05:21:31;;;;;;;15.60;14.13;;;;;;;13.74;100.00;99090.27;1688199;82;20168;-74
2022/09/15 05:23:57;;;;;;;13.95;12.63;;;;;;;13.74;100.00;99082.23;1697023;82;21073;-69
2022/09/15 05:26:27;;;;;;;15.30;13.93;;;;;;;13.82;100.00;99077.01;1700516;82;21105;-70
2022/09/15 05:28:55;;;;;;;17.05;15.50;;;;;;;13.93;100.00;99075.34;1697889;82;21041;-74
2022/09/15 05:31:26;;;;;;;19.37;17.65;;;;;;;14.01;100.00;99070.41;1695199;82;21086;-71
2022/09/15 05:33:53;;;;;;;18.92;17.40;;;;;;;14.07;100.00;99064.61;1697043;81;21006;-69
2022/09/15 05:36:23;;;;;;;19.10;17.37;;;;;;;14.11;100.00;99064.41;1695455;82;21095;-72
2022/09/15 05:38:52;;;;;;;19.32;17.32;;;;;;;14.14;100.00;99057.20;1691471;82;21065;-72
2022/09/15 05:42:11;;;;;;;18.37;16.70;;;;;;;14.16;100.00;99055.09;1734265;79;22245;-70
2022/09/15 05:44:37;;;;;;;16.67;15.08;;;;;;;13.87;100.00;99018.19;1709874;82;21543;-73
2022/09/15 05:47:04;;;;;;;15.78;14.58;;;;;;;14.22;100.00;99072.06;1707301;82;21016;-71
2022/09/15 05:49:30;;;;;;;22.25;19.48;;;;;;;14.29;100.00;99075.94;1693409;82;22198;-70
2022/09/15 05:51:56;;;;;;;16.93;15.32;;;;;;;14.30;100.00;99072.21;1698011;82;21040;-71
2022/09/15 05:54:22;;;;;;;16.30;14.80;;;;;;;14.30;100.00;99073.55;1723534;81;21041;-71
2022/09/15 05:56:48;;;;;;;16.75;15.18;;;;;;;14.29;100.00;99074.59;1722302;81;21015;-74
2022/09/15 05:59:15;;;;;;;16.57;15.15;;;;;;;14.27;100.00;99074.03;1719425;81;22160;-73
2022/09/15 06:01:41;;;;;;;16.75;14.98;;;;;;;14.24;100.00;99077.18;1713461;81;20997;-72
2022/09/15 06:04:07;;;;;;;17.82;16.12;;;;;;;14.23;100.00;99075.04;1704792;82;21029;-75
2022/09/15 06:06:33;;;;;;;16.75;15.35;;;;;;;14.22;100.00;99081.44;1721286;81;21066;-74
2022/09/15 06:09:00;;;;;;;15.98;14.53;;;;;;;14.21;100.00;99083.85;1716072;81;21466;-72
2022/09/15 06:11:32;;;;;;;14.38;13.18;;;;;;;14.25;100.00;99097.05;1692124;83;21028;-71
2022/09/15 06:14:01;;;;;;;14.98;13.75;;;;;;;14.28;100.00;99093.06;1693194;84;21014;-73
2022/09/15 06:16:32;;;;;;;14.63;13.32;;;;;;;14.32;100.00;99091.55;1650504;85;21069;-72
2022/09/15 06:19:00;;;;;;;14.05;12.85;;;;;;;14.39;100.00;99088.15;1696988;83;21801;-71
2022/09/15 06:21:28;;;;;;;14.05;12.73;;;;;;;14.46;100.00;99094.16;1695767;83;21523;-73
2022/09/15 06:23:58;;;;;;;13.98;12.85;;;;;;;14.53;100.00;99085.97;1688177;83;21552;-73
2022/09/15 06:26:26;;;;;;;13.58;12.13;;;;;;;14.57;100.00;99087.13;1688284;83;21004;-72
2022/09/15 06:29:01;;;;;;;15.83;13.08;;;;;;;14.60;100.00;99098.18;1690845;83;21002;-74
2022/09/15 06:31:30;;;;;;;13.65;12.55;;;;;;;14.66;100.00;99093.70;1677494;84;21075;-73
2022/09/15 06:33:57;;;;;;;13.85;12.65;;;;;;;14.70;100.00;99088.67;1690649;83;20967;-73
2022/09/15 06:36:27;;;;;;;14.07;12.70;;;;;;;14.74;100.00;99085.77;1693637;82;21192;-73
2022/09/15 06:38:54;;;;;;;14.15;12.82;;;;;;;14.77;100.00;99078.05;1708387;83;21156;-72
2022/09/15 06:41:21;;;;;;;12.23;11.12;;;;;;;14.77;100.00;99072.69;1718401;82;21481;-73
2022/09/15 06:43:48;;;;;;;12.70;11.50;;;;;;;14.75;100.00;99074.00;1715912;82;21098;-72
2022/09/15 06:46:19;;;;;;;13.20;11.97;;;;;;;14.72;100.00;99064.55;1721145;82;21514;-73
2022/09/15 06:48:45;;;;;;;12.88;11.55;;;;;;;14.71;100.00;99063.45;1707703;83;20995;-72
2022/09/15 06:51:15;;;;;;;15.10;12.70;;;;;;;14.70;100.00;99065.87;1689964;83;21493;-73
2022/09/15 06:53:42;;;;;;;17.42;16.00;;;;;;;14.69;100.00;99062.89;1691583;83;21095;-72
2022/09/15 06:56:13;;;;;;;15.30;13.75;;;;;;;14.67;100.00;99056.97;1695937;84;21102;-71
2022/09/15 06:58:41;;;;;;;15.78;14.25;;;;;;;14.67;100.00;99059.11;1697779;83;21054;-74
2022/09/15 07:01:21;;;;;;;14.85;13.55;;;;;;;14.66;100.00;99057.50;1696776;84;20970;-76
2022/09/15 07:03:48;;;;;;;13.90;12.65;;;;;;;14.68;100.00;99058.60;1686454;84;21072;-74
2022/09/15 07:06:15;;;;;;;14.20;12.60;;;;;;;14.71;100.00;99058.09;1684159;83;21068;-72
2022/09/15 07:08:41;;;;;;;14.33;12.98;;;;;;;14.74;100.00;99058.95;1687334;83;21026;-74
2022/09/15 07:11:09;;;;;;;12.37;11.25;;;;;;;14.78;100.00;99061.41;1676101;84;21044;-74
2022/09/15 07:13:36;;;;;;;14.30;12.88;;;;;;;14.86;100.00;99055.64;1692008;83;21174;-76
2022/09/15 07:16:06;;;;;;;15.70;14.20;;;;;;;14.91;100.00;99053.55;1693410;83;21023;-72
2022/09/15 07:18:33;;;;;;;14.63;13.20;;;;;;;14.97;100.00;99055.23;1671258;84;21498;-74
2022/09/15 07:21:02;;;;;;;15.30;13.78;;;;;;;15.03;100.00;99056.94;1674930;84;21152;-74
2022/09/15 07:23:29;;;;;;;15.80;14.45;;;;;;;15.09;100.00;99062.64;1664227;84;21118;-75
2022/09/15 07:26:13;;;;;;;;;;;;;;;15.15;100.00;99054.13;1718943;82;21030;-73
2022/09/15 07:28:42;;;;;;;14.40;13.10;;;;;;;15.21;100.00;99055.00;1710247;83;20149;-72
2022/09/15 07:31:13;;;;;;;14.90;13.55;;;;;;;15.22;100.00;99056.10;1699277;83;21563;-72
2022/09/15 07:33:39;;;;;;;17.05;13.88;;;;;;;15.30;100.00;99056.99;1704559;82;21068;-71
2022/09/15 07:36:07;;;;;;;13.05;11.85;;;;;;;15.38;100.00;99055.73;1720119;83;21502;-73
2022/09/15 07:38:40;;;;;;;12.20;11.10;;;;;;;15.43;100.00;99045.06;1667286;83;21101;-73
2022/09/15 07:41:13;;;;;;;13.00;11.88;;;;;;;15.45;100.00;99038.10;1723852;82;21166;-73
2022/09/15 07:43:40;;;;;;;13.05;11.25;;;;;;;15.49;100.00;99043.24;1677234;84;21013;-73
2022/09/15 07:46:06;;;;;;;12.07;10.88;;;;;;;15.49;100.00;99041.36;1692453;82;21022;-75
2022/09/15 07:48:33;;;;;;;11.95;10.98;;;;;;;15.54;100.00;99043.30;1672721;85;21043;-75
2022/09/15 07:50:59;;;;;;;11.80;10.78;;;;;;;15.55;100.00;99044.38;1658566;84;21059;-74
2022/09/15 07:53:29;;;;;;;13.45;10.53;;;;;;;15.58;100.00;99036.36;1657703;84;21012;-73
2022/09/15 07:55:56;;;;;;;10.88;9.78;;;;;;;15.59;100.00;99039.31;1630340;86;21076;-72
2022/09/15 07:58:23;;;;;;;10.98;10.08;;;;;;;15.56;100.00;99033.92;1650304;86;20982;-74
2022/09/15 08:00:49;;;;;;;10.95;9.98;;;;;;;15.57;100.00;99032.04;1666821;85;21057;-75
2022/09/15 08:03:15;;;;;;;12.98;10.55;;;;;;;15.62;100.00;99029.41;1620071;87;21596;-73
2022/09/15 08:05:42;;;;;;;11.05;10.05;;;;;;;15.66;100.00;99026.49;1663857;85;20994;-74
2022/09/15 08:08:08;;;;;;;11.45;9.23;;;;;;;15.75;100.00;99026.34;1673156;85;20998;-73
2022/09/15 08:10:39;;;;;;;11.78;10.48;;;;;;;15.84;100.00;99027.22;1678963;85;21050;-76
2022/09/15 08:13:05;;;;;;;14.05;11.05;;;;;;;15.90;100.00;99031.59;1698005;83;21006;-73
2022/09/15 08:15:35;;;;;;;11.53;10.40;;;;;;;15.92;100.00;99035.64;1721019;83;21033;-75
2022/09/15 08:18:02;;;;;;;11.97;10.68;;;;;;;15.89;100.00;99029.42;1719552;82;21067;-73
2022/09/15 08:20:28;;;;;;;12.45;11.20;;;;;;;15.89;100.00;99028.08;1724677;82;21163;-73
2022/09/15 08:22:54;;;;;;;12.50;11.43;;;;;;;15.93;100.00;99031.06;1724529;82;21078;-73
2022/09/15 08:25:20;;;;;;;15.10;10.68;;;;;;;15.99;100.00;99037.30;1718461;82;21066;-73
2022/09/15 08:27:47;;;;;;;11.75;10.55;;;;;;;16.03;100.00;99031.68;1704275;83;21065;-73
2022/09/15 08:30:13;;;;;;;19.45;12.03;;;;;;;16.11;100.00;99029.34;1664829;83;21054;-74
2022/09/15 08:32:39;;;;;;;12.00;11.00;;;;;;;16.19;100.00;99026.72;1667730;85;21137;-73
2022/09/15 08:35:07;;;;;;;11.08;10.00;;;;;;;16.26;100.00;99021.94;1674619;85;21054;-73
2022/09/15 08:37:33;;;;;;;10.25;9.45;;;;;;;16.28;100.00;99018.99;1679388;84;21026;-74
2022/09/15 08:40:00;;;;;;;11.48;10.45;;;;;;;16.30;100.00;99011.48;1671660;85;21046;-74
2022/09/15 08:42:28;;;;;;;15.70;10.05;;;;;;;16.32;100.00;99022.78;1669766;85;21141;-74
2022/09/15 08:45:04;;;;;;;10.43;9.53;;;;;;;16.36;100.00;99019.84;1646132;85;21010;-72
2022/09/15 08:47:40;;;;;;;10.93;9.93;;;;;;;16.40;100.00;99026.33;1669457;85;21053;-73
2022/09/15 08:50:37;;;;;;;17.45;10.50;;;;;;;16.45;100.00;99017.49;1681092;85;21040;-74
2022/09/15 08:53:13;;;;;;;12.10;9.70;;;;;;;16.49;100.00;99014.56;1670834;85;20990;-74
2022/09/15 08:55:52;;;;;;;10.85;9.93;;;;;;;16.49;100.00;99014.56;1661319;84;20989;-71
2022/09/15 08:58:24;;;;;;;10.75;9.75;;;;;;;16.47;100.00;99016.16;1668531;85;21035;-75
2022/09/15 09:01:04;;;;;;;10.78;9.88;;;;;;;16.46;100.00;99013.20;1675231;84;21011;-74
2022/09/15 09:03:43;;;;;;;12.47;11.05;;;;;;;16.46;100.00;99013.20;1676632;84;20956;-74
2022/09/15 09:06:58;;;;;;;12.23;10.32;;;;;;;16.46;100.00;99017.75;1689077;83;21198;-74
2022/09/15 09:10:00;;;;;;;12.03;10.48;;;;;;;16.46;100.00;99017.75;1693384;84;21195;-74
2022/09/15 09:12:47;;;;;;;11.28;10.38;;;;;;;16.50;100.00;99008.92;1689284;84;20991;-74
2022/09/15 09:15:37;;;;;;;10.95;9.95;;;;;;;16.52;100.00;99005.44;1683714;84;21478;-75
2022/09/15 09:18:27;;;;;;;10.50;9.70;;;;;;;16.57;100.00;99003.84;1686328;83;21526;-74
2022/09/15 09:21:10;;;;;;;10.08;9.35;;;;;;;16.60;100.00;99004.67;1690024;84;21500;-74
2022/09/15 09:24:06;;;;;;;11.70;10.60;;;;;;;16.62;100.00;98999.84;1685578;84;20973;-74
2022/09/15 09:26:35;;;;;;;12.10;10.88;;;;;;;16.63;100.00;98996.06;1674226;84;21534;-77
2022/09/15 09:29:11;;;;;;;10.93;10.03;;;;;;;16.65;100.00;98994.75;1689172;84;21013;-72
2022/09/15 09:31:40;;;;;;;11.53;10.58;;;;;;;16.70;100.00;98994.76;1676931;84;20980;-74
2022/09/15 09:34:27;;;;;;;13.40;9.98;;;;;;;16.74;100.00;99000.44;1654650;85;21105;-73
2022/09/15 09:36:59;;;;;;;11.53;10.65;;;;;;;16.77;100.00;98995.08;1680103;84;21027;-73
2022/09/15 09:39:26;;;;;;;9.65;8.93;;;;;;;16.78;100.00;98996.14;1679698;84;20986;-73
2022/09/15 09:41:54;;;;;;;12.03;9.23;;;;;;;16.80;100.00;98995.37;1667658;84;21154;-74
2022/09/15 09:44:30;;;;;;;10.38;9.48;;;;;;;16.83;100.00;98988.13;1674305;84;21049;-74
2022/09/15 09:46:48;;;;;;;10.55;9.60;;;;;;;16.86;100.00;98988.96;1677701;84;21089;-74
2022/09/15 09:49:21;;;;;;;12.93;9.88;;;;;;;16.87;100.00;98986.53;1679282;84;21077;-75
2022/09/15 09:51:55;;;;;;;11.20;10.03;;;;;;;16.92;100.00;98987.11;1679380;84;21038;-73
2022/09/15 09:54:27;;;;;;;10.93;10.00;;;;;;;16.93;100.00;98997.61;1678328;84;20983;-73
2022/09/15 09:56:55;;;;;;;9.53;8.70;;;;;;;17.00;100.00;98997.35;1678160;84;21015;-74
2022/09/15 09:59:43;;;;;;;10.63;9.63;;;;;;;17.07;100.00;98999.27;1675917;85;21046;-79
2022/09/15 10:02:24;;;;;;;11.57;9.95;;;;;;;17.13;99.98;98999.55;1675671;85;21200;-72
2022/09/15 10:05:05;;;;;;;10.65;9.65;;;;;;;17.20;99.56;99003.36;1677617;84;21059;-77
2022/09/15 10:07:33;;;;;;;8.95;8.13;;;;;;;17.26;98.77;99008.22;1667442;85;21016;-74
2022/09/15 10:10:01;;;;;;;10.70;9.70;;;;;;;17.30;98.85;99007.96;1677262;84;21013;-74
2022/09/15 10:12:35;;;;;;;11.93;10.70;;;;;;;17.39;99.19;99013.11;1673823;84;21069;-75
2022/09/15 10:15:05;;;;;;;12.63;10.00;;;;;;;17.47;98.60;99012.58;1681496;84;21176;-77
2022/09/15 10:17:42;;;;;;;10.53;9.73;;;;;;;17.56;97.90;99016.91;1674579;84;21038;-75
2022/09/15 10:20:34;;;;;;;11.20;9.85;;;;;;;17.30;97.47;98965.67;1676003;84;21091;-75
2022/09/15 10:23:04;;;;;;;9.85;8.95;;;;;;;17.64;97.24;99010.19;1680210;84;21165;-75
2022/09/15 10:25:35;;;;;;;12.28;9.95;;;;;;;17.64;96.89;99006.15;1670377;84;21018;-76
2022/09/15 10:28:13;;;;;;;11.35;9.65;;;;;;;17.66;96.60;99006.14;1679112;84;21470;-74
2022/09/15 10:31:06;;;;;;;9.38;8.55;;;;;;;17.68;96.57;99009.38;1671742;85;21600;-75
2022/09/15 10:33:40;;;;;;;9.20;8.50;;;;;;;17.75;96.44;99011.02;1676501;84;21083;-77
2022/09/15 10:36:11;;;;;;;11.08;8.63;;;;;;;17.78;95.96;99010.47;1676466;84;21125;-74
2022/09/15 10:38:43;;;;;;;10.82;9.70;;;;;;;17.81;95.84;99009.39;1654735;85;21663;-75
2022/09/15 10:41:28;;;;;;;9.70;8.90;;;;;;;17.80;95.28;99006.97;1679430;84;20991;-75
2022/09/15 10:44:19;;;;;;;10.20;9.40;;;;;;;17.83;95.84;99005.09;1668347;84;21085;-75
2022/09/15 10:47:26;;;;;;;9.08;8.38;;;;;;;17.86;95.80;98992.47;1677522;84;21105;-75
2022/09/15 10:50:24;;;;;;;9.38;8.25;;;;;;;17.60;95.75;98938.52;1679960;84;20943;-77
2022/09/15 10:53:11;;;;;;;9.23;8.50;;;;;;;17.97;95.30;98979.77;1676609;85;21037;-76
2022/09/15 10:55:44;;;;;;;;;;;;;;;18.03;94.87;98980.86;1680491;84;21003;-77
2022/09/15 10:58:45;;;;;;;8.15;7.47;;;;;;;18.07;94.29;98981.13;1683590;84;20113;-76
2022/09/15 11:01:29;;;;;;;8.05;7.45;;;;;;;18.08;94.51;98978.69;1689538;84;21067;-78
2022/09/15 11:04:22;;;;;;;8.03;7.40;;;;;;;18.17;93.72;98974.92;1691122;85;21561;-74
2022/09/15 11:06:56;;;;;;;8.93;7.97;;;;;;;18.25;93.89;98978.41;1672190;85;21556;-75
2022/09/15 11:10:13;;;;;;;8.15;7.28;;;;;;;18.35;92.73;98981.65;1671185;85;21029;-77
2022/09/15 11:12:54;;;;;;;7.50;6.85;;;;;;;18.38;91.69;98974.34;1625569;87;21170;-76
2022/09/15 11:15:32;;;;;;;8.20;7.53;;;;;;;18.37;91.76;98974.89;1670363;84;20952;-77
2022/09/15 11:18:19;;;;;;;8.30;7.28;;;;;;;18.41;91.84;98964.37;1677460;84;21035;-76
2022/09/15 11:21:21;;;;;;;7.28;6.78;;;;;;;18.43;91.55;98964.34;1692678;84;21018;-76
2022/09/15 11:24:26;;;;;;;8.80;7.67;;;;;;;18.44;91.18;98956.53;1694115;84;21022;-77
2022/09/15 11:27:16;;;;;;;7.60;6.78;;;;;;;18.47;91.45;98961.91;1695962;83;21021;-77
2022/09/15 11:30:00;;;;;;;6.87;6.35;;;;;;;18.51;90.61;98963.52;1694294;83;21050;-76
2022/09/15 11:32:41;;;;;;;6.40;5.45;;;;;;;18.51;90.56;98956.23;1687302;84;21012;-78
2022/09/15 11:35:30;;;;;;;6.17;5.87;;;;;;;18.50;89.14;98946.54;1678273;83;20990;-76
2022/09/15 11:38:04;;;;;;;6.75;6.17;;;;;;;18.49;89.25;98948.41;1649513;84;21065;-76
2022/09/15 11:40:39;;;;;;;6.30;5.80;;;;;;;18.46;89.06;98949.52;1704266;83;21466;-77